createdAt,value
2023-04-02T00:01:06.322Z,1.17
2023-04-02T00:03:54.062Z,1.10
2023-04-02T00:06:39.931Z,1.10
2023-04-02T00:09:30.536Z,0.90
2023-04-02T00:12:00.350Z,1.07
2023-04-02T00:14:30.885Z,1.83
2023-04-02T00:17:00.094Z,1.00
2023-04-02T00:19:32.324Z,1.10
2023-04-02T00:22:01.887Z,0.87
2023-04-02T00:24:30.329Z,1.20
2023-04-02T00:26:58.690Z,1.30
2023-04-02T00:29:27.101Z,1.27
2023-04-02T00:31:56.997Z,1.20
2023-04-02T00:34:27.697Z,1.87
2023-04-02T00:36:56.133Z,1.10
2023-04-02T00:39:25.808Z,1.10
2023-04-02T00:42:05.178Z,0.80
2023-04-02T00:44:33.988Z,1.10
2023-04-02T00:47:06.103Z,1.10
2023-04-02T00:49:37.742Z,0.87
2023-04-02T00:52:08.140Z,1.00
2023-04-02T00:54:41.075Z,1.27
2023-04-02T00:57:14.529Z,1.10
2023-04-02T00:59:45.810Z,0.93
2023-04-02T01:02:28.059Z,1.20
2023-04-02T01:04:57.940Z,1.00
2023-04-02T01:07:33.482Z,0.90
2023-04-02T01:10:11.428Z,0.80
2023-04-02T01:12:47.783Z,1.23
2023-04-02T01:15:19.406Z,1.00
2023-04-02T01:17:58.462Z,1.10
2023-04-02T01:20:45.463Z,0.90
2023-04-02T01:23:16.986Z,1.20
2023-04-02T01:25:47.169Z,1.00
2023-04-02T01:28:19.701Z,1.00
2023-04-02T01:30:52.783Z,1.00
2023-04-02T01:33:22.305Z,1.00
2023-04-02T01:35:53.478Z,1.23
2023-04-02T01:38:25.875Z,1.37
2023-04-02T01:40:56.343Z,1.57
2023-04-02T01:43:27.807Z,1.33
2023-04-02T01:45:58.789Z,1.10
2023-04-02T01:48:30.405Z,1.03
2023-04-02T01:50:59.416Z,1.40
2023-04-02T01:53:29.689Z,1.10
2023-04-02T01:55:59.399Z,0.80
2023-04-02T01:58:29.374Z,1.60
2023-04-02T02:01:02.101Z,1.23
2023-04-02T02:03:31.194Z,1.53
2023-04-02T02:06:00.337Z,1.23
2023-04-02T02:08:34.579Z,1.13
2023-04-02T02:11:04.174Z,1.17
2023-04-02T02:13:33.606Z,0.93
2023-04-02T02:16:04.890Z,1.00
2023-04-02T02:18:33.471Z,0.97
2023-04-02T02:21:03.052Z,1.30
2023-04-02T02:23:32.432Z,1.23
2023-04-02T02:26:00.984Z,1.13
2023-04-02T02:28:31.269Z,1.50
2023-04-02T02:31:01.348Z,1.00
2023-04-02T02:33:33.658Z,1.20
2023-04-02T02:36:04.014Z,1.37
2023-04-02T02:38:44.300Z,1.17
2023-04-02T02:41:16.411Z,1.27
2023-04-02T02:43:47.195Z,1.20
2023-04-02T02:46:18.686Z,0.90
2023-04-02T02:48:49.010Z,1.43
2023-04-02T02:51:22.539Z,1.27
2023-04-02T02:53:52.770Z,1.10
2023-04-02T02:56:22.901Z,1.40
2023-04-02T02:58:52.890Z,1.30
2023-04-02T03:01:21.640Z,1.10
2023-04-02T03:03:54.779Z,1.63
2023-04-02T03:06:23.336Z,1.30
2023-04-02T03:08:55.840Z,1.40
2023-04-02T03:11:28.157Z,1.53
2023-04-02T03:14:00.913Z,1.43
2023-04-02T03:16:31.214Z,1.40
2023-04-02T03:19:03.430Z,1.47
2023-04-02T03:21:33.629Z,1.90
2023-04-02T03:24:03.937Z,1.13
2023-04-02T03:26:34.576Z,1.50
2023-04-02T03:29:04.600Z,1.20
2023-04-02T03:31:34.236Z,1.27
2023-04-02T03:34:06.706Z,1.40
2023-04-02T03:36:38.382Z,1.20
2023-04-02T03:39:12.024Z,1.00
2023-04-02T03:41:42.140Z,1.40
2023-04-02T03:44:17.494Z,1.13
2023-04-02T03:46:47.761Z,1.00
2023-04-02T03:49:20.916Z,1.03
2023-04-02T03:51:53.009Z,1.73
2023-04-02T03:54:21.405Z,1.63
2023-04-02T03:56:50.637Z,1.30
2023-04-02T03:59:23.396Z,1.53
2023-04-02T04:01:55.683Z,1.03
2023-04-02T04:04:27.209Z,1.10
2023-04-02T04:06:57.583Z,1.10
2023-04-02T04:09:27.593Z,1.07
2023-04-02T04:11:58.857Z,1.13
2023-04-02T04:14:30.270Z,1.23
2023-04-02T04:17:04.501Z,1.30
2023-04-02T04:19:39.718Z,1.67
2023-04-02T04:22:11.718Z,1.37
2023-04-02T04:24:40.239Z,1.40
2023-04-02T04:27:10.783Z,1.40
2023-04-02T04:29:45.754Z,1.60
2023-04-02T04:32:19.677Z,1.10
2023-04-02T04:34:53.674Z,1.30
2023-04-02T04:37:26.201Z,1.60
2023-04-02T04:39:57.410Z,2.00
2023-04-02T04:42:27.133Z,1.27
2023-04-02T04:44:57.246Z,1.60
2023-04-02T04:47:28.464Z,1.43
2023-04-02T04:50:00.610Z,1.27
2023-04-02T04:52:31.221Z,1.30
2023-04-02T04:54:59.558Z,1.07
2023-04-02T04:57:32.178Z,1.37
2023-04-02T05:00:06.375Z,1.17
2023-04-02T05:02:37.749Z,0.90
2023-04-02T05:05:18.564Z,1.80
2023-04-02T05:07:47.976Z,1.27
2023-04-02T05:10:18.919Z,1.80
2023-04-02T05:12:50.495Z,1.37
2023-04-02T05:23:54.617Z,1.20
2023-04-02T05:26:25.281Z,0.90
2023-04-02T05:28:56.567Z,0.90
2023-04-02T05:31:27.117Z,1.40
2023-04-02T05:33:56.299Z,1.30
2023-04-02T05:36:26.415Z,1.60
2023-04-02T05:38:57.485Z,1.40
2023-04-02T05:41:28.287Z,1.17
2023-04-02T05:44:00.767Z,1.10
2023-04-02T05:46:32.787Z,1.90
2023-04-02T05:49:01.673Z,1.13
2023-04-02T05:51:32.421Z,1.30
2023-04-02T05:54:03.032Z,1.67
2023-04-02T05:56:32.621Z,1.50
2023-04-02T05:59:07.671Z,1.43
2023-04-02T06:01:39.788Z,1.37
2023-04-02T06:04:10.366Z,1.10
2023-04-02T06:06:47.049Z,1.43
2023-04-02T06:09:19.289Z,1.00
2023-04-02T06:11:49.476Z,1.40
2023-04-02T06:14:18.661Z,1.40
2023-04-02T06:16:47.525Z,1.30
2023-04-02T06:19:18.223Z,0.90
2023-04-02T06:21:46.827Z,1.00
2023-04-02T06:24:18.606Z,1.30
2023-04-02T06:26:49.162Z,1.47
2023-04-02T06:29:21.777Z,1.10
2023-04-02T06:31:52.191Z,1.27
2023-04-02T06:34:21.399Z,2.00
2023-04-02T06:36:50.762Z,1.60
2023-04-02T06:39:22.748Z,1.90
2023-04-02T06:41:56.479Z,1.63
2023-04-02T06:44:28.294Z,1.20
2023-04-02T06:46:59.340Z,1.10
2023-04-02T06:49:31.380Z,2.43
2023-04-02T06:52:00.574Z,1.50
2023-04-02T06:54:30.365Z,2.10
2023-04-02T06:56:58.744Z,1.63
2023-04-02T06:59:27.408Z,1.60
2023-04-02T07:01:58.358Z,1.30
2023-04-02T07:04:27.571Z,1.20
2023-04-02T07:06:55.965Z,1.00
2023-04-02T07:09:24.578Z,1.27
2023-04-02T07:11:54.374Z,1.97
2023-04-02T07:14:22.671Z,1.83
2023-04-02T07:16:51.043Z,1.40
2023-04-02T07:19:21.186Z,2.03
2023-04-02T07:21:49.751Z,1.83
2023-04-02T07:24:18.101Z,2.30
2023-04-02T07:26:48.251Z,1.20
2023-04-02T07:29:19.920Z,1.07
2023-04-02T07:31:48.376Z,1.60
2023-04-02T07:34:16.745Z,0.90
2023-04-02T07:36:45.081Z,1.00
2023-04-02T07:39:13.460Z,1.27
2023-04-02T07:41:55.052Z,1.43
2023-04-02T07:44:24.848Z,1.20
2023-04-02T07:46:53.260Z,1.10
2023-04-02T07:49:21.665Z,1.10
2023-04-02T07:51:50.055Z,1.00
2023-04-02T07:54:18.385Z,1.10
2023-04-02T07:56:46.779Z,1.00
2023-04-02T07:59:15.101Z,0.97
2023-04-02T08:01:44.890Z,0.97
2023-04-02T08:04:18.516Z,1.57
2023-04-02T08:06:47.442Z,1.10
2023-04-02T08:09:15.839Z,1.67
2023-04-02T08:11:44.332Z,1.13
2023-04-02T08:14:12.874Z,1.30
2023-04-02T08:16:50.662Z,1.73
2023-04-02T08:19:19.092Z,0.90
2023-04-02T08:21:49.963Z,1.27
2023-04-02T08:24:19.144Z,1.17
2023-04-02T08:26:47.561Z,0.90
2023-04-02T08:29:15.933Z,1.00
2023-04-02T08:31:44.222Z,1.20
2023-04-02T08:34:13.914Z,1.03
2023-04-02T08:36:43.593Z,1.27
2023-04-02T08:39:12.740Z,1.27
2023-04-02T08:41:44.344Z,0.80
2023-04-02T08:44:19.759Z,0.90
2023-04-02T08:46:50.976Z,1.10
2023-04-02T08:49:25.221Z,1.00
2023-04-02T08:51:53.583Z,1.00
2023-04-02T08:54:24.358Z,1.00
2023-04-02T08:56:55.595Z,0.80
2023-04-02T08:59:29.894Z,0.90
2023-04-02T09:02:01.091Z,0.80
2023-04-02T09:04:31.242Z,1.13
2023-04-02T09:07:01.426Z,1.00
2023-04-02T09:09:29.875Z,0.90
2023-04-02T09:12:00.829Z,1.33
2023-04-02T09:14:34.481Z,1.10
2023-04-02T09:17:03.929Z,0.90
2023-04-02T09:19:37.218Z,0.90
2023-04-02T09:22:09.866Z,1.10
2023-04-02T09:24:38.685Z,0.90
2023-04-02T09:27:14.026Z,1.00
2023-04-02T09:29:44.652Z,1.00
2023-04-02T09:32:29.385Z,1.03
2023-04-02T09:35:18.401Z,1.27
2023-04-02T09:38:12.631Z,0.80
2023-04-02T09:40:45.535Z,1.00
2023-04-02T09:43:15.575Z,0.90
2023-04-02T09:45:44.527Z,1.00
2023-04-02T09:48:25.988Z,0.83
2023-04-02T09:51:05.123Z,0.87
2023-04-02T09:53:35.594Z,0.90
2023-04-02T09:56:11.319Z,0.80
2023-04-02T09:58:39.888Z,1.10
2023-04-02T10:01:10.920Z,0.60
2023-04-02T10:03:39.302Z,0.70
2023-04-02T10:06:10.459Z,0.50
2023-04-02T10:08:39.405Z,0.70
2023-04-02T10:11:10.045Z,0.57
2023-04-02T10:13:42.805Z,0.77
2023-04-02T10:16:14.437Z,0.77
2023-04-02T10:18:46.643Z,0.70
2023-04-02T10:21:19.266Z,1.00
2023-04-02T10:23:48.673Z,0.90
2023-04-02T10:26:34.869Z,0.80
2023-04-02T10:29:08.673Z,0.70
2023-04-02T10:31:41.581Z,0.63
2023-04-02T10:34:14.120Z,0.90
2023-04-02T10:36:48.178Z,0.97
2023-04-02T10:39:18.987Z,0.73
2023-04-02T10:41:51.334Z,0.97
2023-04-02T10:44:40.478Z,0.83
2023-04-02T10:47:18.634Z,0.97
2023-04-02T10:49:52.283Z,0.50
2023-04-02T10:52:23.272Z,0.80
2023-04-02T10:54:52.259Z,0.77
2023-04-02T10:57:24.165Z,0.73
2023-04-02T10:59:56.152Z,0.90
2023-04-02T11:02:28.123Z,0.80
2023-04-02T11:04:59.840Z,0.77
2023-04-02T11:07:32.426Z,0.77
2023-04-02T11:10:01.636Z,1.03
2023-04-02T11:12:43.362Z,1.27
2023-04-02T11:15:16.737Z,2.03
2023-04-02T11:17:45.837Z,1.00
2023-04-02T11:20:32.949Z,1.03
2023-04-02T11:23:11.390Z,1.00
2023-04-02T11:25:39.847Z,1.20
2023-04-02T11:28:15.703Z,1.10
2023-04-02T11:30:44.138Z,1.10
2023-04-02T11:33:36.594Z,1.13
2023-04-02T11:36:27.254Z,0.90
2023-04-02T11:39:01.863Z,1.33
2023-04-02T11:41:54.492Z,1.03
2023-04-02T11:44:24.359Z,1.93
2023-04-02T11:46:52.828Z,1.00
2023-04-02T11:49:37.640Z,1.40
2023-04-02T11:52:12.358Z,0.87
2023-04-02T11:54:42.617Z,1.10
2023-04-02T11:57:21.045Z,1.37
2023-04-02T11:59:54.226Z,1.63
2023-04-02T12:02:25.836Z,1.03
2023-04-02T12:05:07.805Z,1.00
2023-04-02T12:07:59.070Z,1.00
2023-04-02T12:10:32.104Z,1.10
2023-04-02T12:13:00.466Z,0.87
2023-04-02T12:15:34.722Z,1.90
2023-04-02T12:18:14.527Z,1.50
2023-04-02T12:20:44.969Z,1.23
2023-04-02T12:23:20.080Z,1.03
2023-04-02T12:25:54.877Z,0.90
2023-04-02T12:28:23.609Z,0.70
2023-04-02T12:30:52.421Z,0.73
2023-04-02T12:33:30.517Z,1.07
2023-04-02T12:35:59.905Z,1.00
2023-04-02T12:38:29.267Z,0.97
2023-04-02T12:40:59.772Z,0.93
2023-04-02T12:43:29.134Z,1.07
2023-04-02T12:45:59.085Z,0.87
2023-04-02T12:48:27.764Z,0.87
2023-04-02T12:50:56.871Z,1.27
2023-04-02T12:53:29.030Z,3.93
2023-04-02T12:55:58.841Z,1.03
2023-04-02T12:58:28.805Z,0.70
2023-04-02T13:01:11.094Z,0.73
2023-04-02T13:03:39.589Z,0.67
2023-04-02T13:06:20.035Z,1.23
2023-04-02T13:08:48.356Z,0.90
2023-04-02T13:11:18.083Z,0.80
2023-04-02T13:13:47.588Z,0.97
2023-04-02T13:16:29.539Z,0.80
2023-04-02T13:19:16.271Z,0.80
2023-04-02T13:21:44.815Z,0.90
2023-04-02T13:24:18.717Z,0.80
2023-04-02T13:26:49.629Z,0.80
2023-04-02T13:29:20.687Z,1.10
2023-04-02T13:31:49.402Z,1.07
2023-04-02T13:34:17.946Z,0.70
2023-04-02T13:36:46.441Z,0.67
2023-04-02T13:39:15.124Z,0.87
2023-04-02T13:41:44.730Z,0.60
2023-04-02T13:44:25.508Z,0.90
2023-04-02T13:46:54.835Z,0.70
2023-04-02T13:49:23.724Z,0.70
2023-04-02T13:51:52.972Z,1.00
2023-04-02T13:54:23.410Z,1.00
2023-04-02T13:56:52.043Z,0.97
2023-04-02T13:59:20.417Z,1.53
2023-04-02T14:01:51.260Z,1.27
2023-04-02T14:04:22.323Z,0.80
2023-04-02T14:06:59.701Z,1.00
2023-04-02T14:09:32.750Z,0.80
2023-04-02T14:12:07.191Z,1.57
2023-04-02T14:14:40.993Z,1.00
2023-04-02T14:17:15.904Z,0.90
2023-04-02T14:19:53.521Z,1.00
2023-04-02T14:22:27.097Z,1.10
2023-04-02T14:24:59.571Z,0.83
2023-04-02T14:27:32.385Z,0.80
2023-04-02T14:30:03.641Z,1.00
2023-04-02T14:32:38.339Z,1.30
2023-04-02T14:35:10.395Z,1.40
2023-04-02T14:37:41.389Z,1.10
2023-04-02T14:40:15.546Z,1.57
2023-04-02T14:42:45.911Z,1.67
2023-04-02T14:45:17.027Z,2.37
2023-04-02T14:47:48.651Z,2.23
2023-04-02T14:50:19.304Z,2.17
2023-04-02T14:52:49.366Z,1.70
2023-04-02T14:55:23.773Z,2.10
2023-04-02T14:57:54.668Z,2.03
2023-04-02T15:00:27.771Z,1.87
2023-04-02T15:02:59.055Z,1.50
2023-04-02T15:05:30.200Z,1.87
2023-04-02T15:08:02.435Z,2.00
2023-04-02T15:10:32.213Z,2.60
2023-04-02T15:13:01.809Z,2.37
2023-04-02T15:15:40.485Z,1.83
2023-04-02T15:18:13.416Z,2.30
2023-04-02T15:20:45.427Z,3.50
2023-04-02T15:23:17.526Z,2.87
2023-04-02T15:25:47.889Z,2.57
2023-04-02T15:28:22.622Z,3.27
2023-04-02T15:30:54.716Z,2.27
2023-04-02T15:33:37.508Z,1.67
2023-04-02T15:36:16.268Z,2.60
2023-04-02T15:38:45.970Z,2.00
2023-04-02T15:41:17.013Z,1.33
2023-04-02T15:43:46.765Z,1.80
2023-04-02T15:46:21.032Z,1.93
2023-04-02T15:48:56.244Z,1.97
2023-04-02T15:51:29.656Z,2.10
2023-04-02T15:54:04.012Z,2.10
2023-04-02T15:56:37.673Z,1.93
2023-04-02T15:59:23.652Z,1.63
2023-04-02T16:01:55.780Z,2.30
2023-04-02T16:04:37.626Z,2.47
2023-04-02T16:07:21.379Z,2.30
2023-04-02T16:09:54.473Z,1.37
2023-04-02T16:12:22.843Z,1.80
2023-04-02T16:14:51.573Z,2.27
2023-04-02T16:17:25.261Z,2.17
2023-04-02T16:19:58.114Z,2.40
2023-04-02T16:22:27.724Z,2.03
2023-04-02T16:24:59.155Z,2.00
2023-04-02T16:27:30.859Z,2.07
2023-04-02T16:30:23.435Z,1.57
2023-04-02T16:33:01.394Z,1.93
2023-04-02T16:35:43.186Z,2.10
2023-04-02T16:38:17.206Z,1.90
2023-04-02T16:41:04.761Z,1.63
2023-04-02T16:43:42.011Z,1.40
2023-04-02T16:46:12.921Z,2.20
2023-04-02T16:48:44.532Z,2.00
2023-04-02T16:51:21.158Z,2.50
2023-04-02T16:54:01.522Z,1.70
2023-04-02T16:56:48.770Z,2.03
2023-04-02T16:59:21.496Z,2.60
2023-04-02T17:01:54.737Z,2.73
2023-04-02T17:04:46.175Z,2.73
2023-04-02T17:07:24.606Z,2.80
2023-04-02T17:09:53.815Z,2.10
2023-04-02T17:12:23.206Z,2.80
2023-04-02T17:14:54.635Z,2.80
2023-04-02T17:17:24.361Z,2.60
2023-04-02T17:19:54.944Z,2.80
2023-04-02T17:22:24.689Z,2.30
2023-04-02T17:24:54.843Z,2.80
2023-04-02T17:27:27.350Z,3.07
2023-04-02T17:29:58.679Z,2.90
2023-04-02T17:32:29.801Z,3.20
2023-04-02T17:34:58.345Z,3.90
2023-04-02T17:37:33.242Z,2.80
2023-04-02T17:40:07.317Z,2.93
2023-04-02T17:42:42.401Z,2.73
2023-04-02T17:45:15.464Z,2.40
2023-04-02T17:47:48.324Z,3.60
2023-04-02T17:50:38.513Z,3.03
2023-04-02T17:53:13.202Z,2.30
2023-04-02T17:55:46.711Z,3.43
2023-04-02T17:58:20.429Z,2.30
2023-04-02T18:00:54.983Z,2.60
2023-04-02T18:03:30.057Z,2.70
2023-04-02T18:06:01.179Z,3.03
2023-04-02T18:08:34.985Z,2.57
2023-04-02T18:11:08.781Z,5.27
2023-04-02T18:13:37.655Z,4.27
2023-04-02T18:16:15.568Z,14.77
2023-04-02T18:19:03.364Z,19.47
2023-04-02T18:21:33.243Z,9.13
2023-04-02T18:24:12.399Z,4.73
2023-04-02T18:26:46.148Z,3.60
2023-04-02T18:29:20.033Z,3.60
2023-04-02T18:31:52.045Z,2.90
2023-04-02T18:34:36.740Z,3.17
2023-04-02T18:37:09.918Z,2.30
2023-04-02T18:39:44.965Z,3.30
2023-04-02T18:42:18.645Z,4.00
2023-04-02T18:44:53.222Z,3.43
2023-04-02T18:47:24.293Z,3.73
2023-04-02T18:49:56.390Z,4.30
2023-04-02T18:52:26.202Z,4.23
2023-04-02T18:54:58.861Z,4.07
2023-04-02T18:57:30.730Z,3.67
2023-04-02T19:00:02.088Z,3.47
2023-04-02T19:02:34.986Z,2.80
2023-04-02T19:05:07.159Z,3.93
2023-04-02T19:07:37.834Z,3.50
2023-04-02T19:10:11.035Z,3.70
2023-04-02T19:12:39.416Z,3.33
2023-04-02T19:15:17.346Z,3.50
2023-04-02T19:17:47.207Z,3.70
2023-04-02T19:20:20.922Z,3.30
2023-04-02T19:22:56.144Z,3.90
2023-04-02T19:25:37.721Z,3.83
2023-04-02T19:28:12.504Z,3.40
2023-04-02T19:30:58.986Z,4.00
2023-04-02T19:33:35.507Z,3.50
2023-04-02T19:36:09.506Z,3.67
2023-04-02T19:38:54.253Z,4.23
2023-04-02T19:41:27.969Z,4.10
2023-04-02T19:43:57.019Z,3.63
2023-04-02T19:46:26.132Z,4.37
2023-04-02T19:48:57.856Z,4.43
2023-04-02T19:51:26.171Z,5.77
2023-04-02T19:53:54.559Z,3.17
2023-04-02T19:56:23.035Z,4.50
2023-04-02T19:58:52.720Z,5.57
2023-04-02T20:01:21.131Z,5.87
2023-04-02T20:03:49.608Z,5.67
2023-04-02T20:06:18.121Z,4.00
2023-04-02T20:08:47.256Z,3.17
2023-04-02T20:11:15.648Z,2.77
2023-04-02T20:13:43.806Z,4.40
2023-04-02T20:16:14.457Z,4.27
2023-04-02T20:18:42.998Z,5.63
2023-04-02T20:21:11.134Z,3.73
2023-04-02T20:23:39.463Z,3.90
2023-04-02T20:26:08.448Z,3.23
2023-04-02T20:28:36.646Z,4.07
2023-04-02T20:31:10.648Z,4.30
2023-04-02T20:33:40.842Z,3.83
2023-04-02T20:36:11.510Z,4.13
2023-04-02T20:38:40.091Z,3.43
2023-04-02T20:41:10.341Z,3.80
2023-04-02T20:43:40.679Z,3.50
2023-04-02T20:46:10.834Z,3.43
2023-04-02T20:48:41.463Z,4.07
2023-04-02T20:51:11.368Z,4.30
2023-04-02T20:53:39.647Z,2.73
2023-04-02T20:56:10.141Z,3.27
2023-04-02T20:58:39.182Z,3.40
2023-04-02T21:01:13.202Z,3.37
2023-04-02T21:03:42.866Z,3.63
2023-04-02T21:06:15.085Z,5.20
2023-04-02T21:08:43.352Z,4.30
2023-04-02T21:11:12.131Z,3.70
2023-04-02T21:13:43.899Z,4.10
2023-04-02T21:16:16.159Z,3.40
2023-04-02T21:18:45.899Z,4.40
2023-04-02T21:21:15.545Z,3.17
2023-04-02T21:23:44.959Z,4.50
2023-04-02T21:26:15.040Z,3.30
2023-04-02T21:28:43.403Z,4.07
2023-04-02T21:31:13.381Z,2.87
2023-04-02T21:33:43.042Z,4.20
2023-04-02T21:36:14.328Z,3.40
2023-04-02T21:38:43.802Z,3.20
2023-04-02T21:41:16.541Z,4.13
2023-04-02T21:43:46.002Z,4.00
2023-04-02T21:46:14.183Z,2.73
2023-04-02T21:48:42.389Z,3.47
2023-04-02T21:51:13.578Z,3.60
2023-04-02T21:53:42.482Z,3.27
2023-04-02T21:56:13.240Z,3.77
2023-04-02T21:58:41.363Z,3.10
2023-04-02T22:01:14.153Z,3.90
2023-04-02T22:03:48.594Z,3.20
2023-04-02T22:06:20.078Z,3.10
2023-04-02T22:08:53.540Z,3.90
2023-04-02T22:11:24.702Z,3.40
2023-04-02T22:13:53.005Z,3.20
2023-04-02T22:16:22.480Z,3.53
2023-04-02T22:18:51.297Z,2.63
2023-04-02T22:21:21.755Z,3.80
2023-04-02T22:23:50.557Z,3.80
2023-04-02T22:26:19.929Z,3.80
2023-04-02T22:28:48.417Z,3.00
2023-04-02T22:31:18.656Z,4.00
2023-04-02T22:33:48.004Z,3.80
2023-04-02T22:36:17.539Z,3.93
2023-04-02T22:38:47.084Z,2.80
2023-04-02T22:41:17.081Z,3.87
2023-04-02T22:43:46.560Z,3.50
2023-04-02T22:46:16.444Z,2.80
2023-04-02T22:48:45.868Z,4.40
2023-04-02T22:51:16.619Z,3.33
2023-04-02T22:53:46.599Z,4.00
2023-04-02T22:56:17.107Z,3.00
2023-04-02T22:58:45.974Z,2.87
2023-04-02T23:01:16.888Z,3.60
2023-04-02T23:03:44.981Z,2.77
2023-04-02T23:06:15.708Z,3.10
2023-04-02T23:08:43.916Z,4.60
2023-04-02T23:11:14.945Z,3.17
2023-04-02T23:13:43.164Z,4.57
2023-04-02T23:16:14.084Z,3.57
2023-04-02T23:18:44.016Z,3.93
2023-04-02T23:21:12.126Z,5.70
2023-04-02T23:23:40.733Z,4.03
2023-04-02T23:26:11.080Z,3.53
2023-04-02T23:28:41.187Z,3.20
2023-04-02T23:31:13.183Z,4.43
2023-04-02T23:33:41.348Z,3.37
2023-04-02T23:36:10.754Z,2.93
2023-04-02T23:38:38.979Z,3.60
2023-04-02T23:41:07.057Z,3.63
2023-04-02T23:43:35.061Z,3.10
2023-04-02T23:46:04.474Z,3.87
2023-04-02T23:48:32.477Z,4.27
2023-04-02T23:51:00.509Z,3.73
2023-04-02T23:53:28.582Z,4.27
2023-04-02T23:55:56.629Z,3.00
2023-04-02T23:58:24.731Z,3.40
